Time;durP1;ratioP1;P1;durP2;ratioP2;P2;SDS_P1;SDS_P2;PMS_P1;PMS_P2;Temp;Humidity;BMP_temperature;BMP_pressure;BME280_temperature;BME280_humidity;BME280_pressure;Samples;Min_cycle;Max_cycle;Signal;HPM_P1;HPM_P2
2022/10/04 00:00:11;;;;;;;1.40;1.20;;;11.90;49.10;;;;;;4991117;28;20259;-74
2022/10/04 00:02:43;;;;;;;1.30;1.10;;;11.90;47.70;;;;;;4990214;28;20672;-74
2022/10/04 00:05:14;;;;;;;1.30;1.10;;;12.10;47.70;;;;;;4993608;28;20178;-74
2022/10/04 00:07:48;;;;;;;1.30;1.10;;;12.10;47.80;;;;;;4994243;28;20194;-74
2022/10/04 00:10:27;;;;;;;1.30;1.10;;;12.10;47.40;;;;;;4994399;28;20174;-74
2022/10/04 00:13:04;;;;;;;1.30;1.10;;;12.00;47.60;;;;;;4993748;28;20242;-74
2022/10/04 00:15:32;;;;;;;1.30;1.15;;;12.00;46.80;;;;;;4993949;28;20196;-74
2022/10/04 00:18:24;;;;;;;1.30;1.10;;;12.00;46.70;;;;;;4994098;28;20629;-74
2022/10/04 00:20:49;;;;;;;1.30;1.10;;;11.60;48.30;;;;;;4993538;28;20201;-74
2022/10/04 00:23:24;;;;;;;1.30;1.20;;;11.90;47.90;;;;;;4993700;28;20181;-74
2022/10/04 00:26:00;;;;;;;1.30;1.10;;;11.70;47.60;;;;;;4993751;28;20178;-74
2022/10/04 00:28:28;;;;;;;1.30;1.10;;;11.50;48.00;;;;;;4993836;28;20193;-74
2022/10/04 00:31:18;;;;;;;1.30;1.10;;;11.50;48.20;;;;;;4993223;28;20549;-74
2022/10/04 00:33:50;;;;;;;1.30;1.10;;;11.40;48.60;;;;;;4993710;28;20648;-74
2022/10/04 00:36:43;;;;;;;1.30;1.10;;;11.30;49.80;;;;;;4993809;28;20162;-74
2022/10/04 00:39:09;;;;;;;1.30;1.08;;;11.20;49.70;;;;;;4993428;28;20190;-74
2022/10/04 00:41:47;;;;;;;1.30;1.08;;;11.00;51.30;;;;;;4993217;28;20670;-74
2022/10/04 00:44:43;;;;;;;1.30;1.10;;;11.40;50.70;;;;;;4993321;28;20583;-74
2022/10/04 00:47:19;;;;;;;1.30;1.10;;;11.50;49.10;;;;;;4992468;28;20209;-74
2022/10/04 00:49:48;;;;;;;1.30;1.10;;;11.50;49.20;;;;;;4993479;28;20241;-74
2022/10/04 00:52:25;;;;;;;1.30;1.10;;;11.80;48.60;;;;;;4992943;28;20680;-74
2022/10/04 00:54:55;;;;;;;1.30;1.10;;;11.50;48.10;;;;;;4993273;28;20187;-74
2022/10/04 00:57:30;;;;;;;1.30;1.10;;;11.40;49.90;;;;;;4993368;28;20215;-74
2022/10/04 01:00:03;;;;;;;1.30;1.00;;;11.40;49.90;;;;;;4993403;28;20610;-74
2022/10/04 01:02:45;;;;;;;1.30;1.10;;;11.50;50.00;;;;;;4989185;28;20183;-74
2022/10/04 01:05:26;;;;;;;1.30;1.00;;;11.40;49.90;;;;;;4984474;28;20730;-74
2022/10/04 01:08:08;;;;;;;1.30;1.10;;;11.50;50.00;;;;;;4993006;28;20216;-74
2022/10/04 01:10:58;;;;;;;1.30;1.10;;;11.60;50.10;;;;;;4992942;28;20175;-74
2022/10/04 01:13:46;;;;;;;1.30;1.10;;;11.60;50.10;;;;;;4992915;28;20181;-74
2022/10/04 01:16:18;;;;;;;1.30;1.20;;;11.60;49.20;;;;;;4992513;28;20665;-74
2022/10/04 01:18:44;;;;;;;1.30;1.20;;;11.60;48.40;;;;;;4992796;28;20205;-74
2022/10/04 01:21:19;;;;;;;1.30;1.05;;;11.90;48.10;;;;;;4992459;28;20582;-74
2022/10/04 01:24:08;;;;;;;1.30;1.00;;;11.60;48.60;;;;;;4992167;28;20169;-74
2022/10/04 01:26:37;;;;;;;1.30;1.00;;;11.50;48.80;;;;;;4992096;28;20238;-74
2022/10/04 01:29:08;;;;;;;1.30;1.10;;;11.70;48.90;;;;;;4992806;28;20181;-74
2022/10/04 01:31:36;;;;;;;1.30;1.10;;;11.80;49.70;;;;;;4992268;28;20183;-74
2022/10/04 01:34:06;;;;;;;1.30;1.10;;;11.50;50.00;;;;;;4992414;28;20264;-74
2022/10/04 01:36:34;;;;;;;1.40;1.20;;;11.40;49.90;;;;;;4992694;28;20235;-74
2022/10/04 01:39:00;;;;;;;1.30;1.15;;;11.20;50.60;;;;;;4991870;28;20202;-74
2022/10/04 01:41:43;;;;;;;1.30;1.10;;;11.30;51.20;;;;;;4992405;28;20643;-74
2022/10/04 01:44:16;;;;;;;1.30;1.02;;;10.90;52.00;;;;;;4992327;28;20172;-74
2022/10/04 01:46:42;;;;;;;1.30;1.10;;;10.80;52.10;;;;;;4992463;28;20681;-74
2022/10/04 01:49:16;;;;;;;1.30;1.00;;;10.80;52.40;;;;;;4992293;28;20259;-74
2022/10/04 01:51:53;;;;;;;1.30;1.08;;;10.30;55.30;;;;;;4992016;28;20417;-74
2022/10/04 01:54:23;;;;;;;1.30;1.10;;;10.50;54.70;;;;;;4992246;28;20183;-74
2022/10/04 01:57:17;;;;;;;1.30;1.10;;;10.80;53.00;;;;;;4992191;28;20170;-74
2022/10/04 01:59:51;;;;;;;1.30;1.10;;;11.20;50.60;;;;;;4991534;28;20214;-74
2022/10/04 02:02:22;;;;;;;1.30;1.05;;;11.50;49.40;;;;;;4989214;28;20598;-74
2022/10/04 02:04:54;;;;;;;1.30;1.10;;;11.40;49.90;;;;;;4991699;28;20195;-75
2022/10/04 02:07:21;;;;;;;1.30;1.10;;;11.70;48.70;;;;;;4992394;28;20213;-74
2022/10/04 02:09:53;;;;;;;1.30;1.10;;;11.70;47.30;;;;;;4992042;28;20183;-74
2022/10/04 02:12:19;;;;;;;1.30;1.20;;;11.60;47.00;;;;;;4989646;28;20528;-74
2022/10/04 02:14:52;;;;;;;1.40;1.20;;;11.40;47.90;;;;;;4991567;28;20238;-74
2022/10/04 02:17:21;;;;;;;1.30;1.15;;;11.40;47.90;;;;;;4991935;28;20200;-74
2022/10/04 02:19:48;;;;;;;1.30;1.00;;;11.20;48.80;;;;;;4991941;28;20219;-75
2022/10/04 02:22:14;;;;;;;1.30;1.10;;;11.20;49.10;;;;;;4991448;28;20259;-75
2022/10/04 02:24:44;;;;;;;1.30;1.10;;;11.20;49.30;;;;;;4991893;28;20171;-74
2022/10/04 02:27:10;;;;;;;1.30;1.10;;;11.30;49.20;;;;;;4992032;28;20231;-74
2022/10/04 02:29:36;;;;;;;1.30;1.00;;;11.10;49.60;;;;;;4992060;28;20167;-74
2022/10/04 02:34:49;;;;;;;1.30;1.10;;;10.80;51.50;;;;;;4991774;28;20587;-74
2022/10/04 02:37:17;;;;;;;1.30;1.00;;;10.50;53.10;;;;;;4991977;28;20237;-74
2022/10/04 02:39:52;;;;;;;1.30;1.00;;;9.80;58.20;;;;;;4991837;28;20198;-74
2022/10/04 02:42:47;;;;;;;1.30;1.10;;;9.60;60.70;;;;;;4991405;28;20177;-74
2022/10/04 02:45:36;;;;;;;1.30;1.10;;;9.60;60.10;;;;;;4991769;28;20230;-74
2022/10/04 02:48:19;;;;;;;1.30;1.10;;;10.00;58.30;;;;;;5006643;28;20231;-74
2022/10/04 02:50:52;;;;;;;1.30;1.05;;;9.90;58.80;;;;;;4994990;28;20155;-75
2022/10/04 02:53:31;;;;;;;1.30;1.00;;;10.10;56.40;;;;;;4995687;28;20175;-74
2022/10/04 02:55:57;;;;;;;1.30;1.10;;;10.20;55.80;;;;;;4995358;28;20216;-74
2022/10/04 02:58:24;;;;;;;1.30;1.10;;;10.30;56.00;;;;;;4995562;28;20264;-74
2022/10/04 03:00:59;;;;;;;1.30;1.10;;;10.50;53.30;;;;;;4995043;28;20202;-74
2022/10/04 03:03:30;;;;;;;1.30;1.20;;;10.20;53.70;;;;;;4995359;28;20850;-74
2022/10/04 03:06:13;;;;;;;1.30;1.00;;;10.30;54.90;;;;;;4995237;28;20209;-74
2022/10/04 03:08:47;;;;;;;1.30;1.10;;;10.70;52.60;;;;;;4995340;28;20222;-75
2022/10/04 03:11:17;;;;;;;1.30;1.10;;;10.90;50.60;;;;;;4995078;28;20193;-75
2022/10/04 03:13:49;;;;;;;1.30;1.10;;;11.00;49.90;;;;;;4994870;28;20175;-74
2022/10/04 03:16:15;;;;;;;1.30;1.10;;;11.00;50.00;;;;;;4995162;28;20233;-75
2022/10/04 03:18:43;;;;;;;1.30;1.10;;;11.00;49.50;;;;;;4995069;28;20207;-75
2022/10/04 03:21:13;;;;;;;1.30;1.10;;;11.00;49.70;;;;;;4994792;28;20519;-74
2022/10/04 03:23:39;;;;;;;1.30;1.13;;;11.10;49.50;;;;;;4994648;28;20713;-74
2022/10/04 03:26:26;;;;;;;1.30;1.05;;;11.00;49.50;;;;;;4994953;28;20225;-74
2022/10/04 03:28:52;;;;;;;1.30;1.10;;;11.00;49.50;;;;;;4994979;28;20198;-74
2022/10/04 03:31:18;;;;;;;1.30;1.00;;;11.00;50.00;;;;;;4994709;28;20182;-75
2022/10/04 03:33:45;;;;;;;1.30;1.10;;;11.10;49.60;;;;;;4994468;28;20422;-75
2022/10/04 03:36:17;;;;;;;1.30;1.10;;;11.10;49.40;;;;;;4994495;28;20196;-74
2022/10/04 03:38:45;;;;;;;1.30;1.10;;;11.00;48.50;;;;;;4994488;28;20214;-74
2022/10/04 03:41:12;;;;;;;1.30;1.10;;;11.00;49.30;;;;;;4994533;28;20209;-74
2022/10/04 03:43:43;;;;;;;1.30;1.20;;;10.90;49.40;;;;;;4994459;28;20174;-74
2022/10/04 03:46:11;;;;;;;1.30;1.10;;;10.60;49.90;;;;;;4994764;28;20175;-74
2022/10/04 03:48:42;;;;;;;1.30;1.08;;;10.40;51.10;;;;;;4994151;28;20188;-74
2022/10/04 03:51:14;;;;;;;1.30;1.20;;;10.30;50.50;;;;;;4994164;28;20185;-74
2022/10/04 03:53:44;;;;;;;1.30;1.10;;;10.10;51.90;;;;;;4994127;28;20185;-74
2022/10/04 03:56:24;;;;;;;1.30;1.10;;;9.50;54.90;;;;;;4994547;28;20186;-74
2022/10/04 03:58:51;;;;;;;1.30;1.10;;;9.50;55.00;;;;;;4994049;28;20201;-74
2022/10/04 04:01:37;;;;;;;1.30;1.08;;;9.70;54.50;;;;;;4993441;28;20693;-74
2022/10/04 04:04:32;;;;;;;1.30;1.10;;;9.80;53.20;;;;;;4994047;28;20178;-74
2022/10/04 04:07:00;;;;;;;1.30;1.02;;;9.60;55.50;;;;;;4994069;28;20540;-74
2022/10/04 04:09:35;;;;;;;1.30;1.05;;;10.30;50.00;;;;;;4994367;28;20260;-74
2022/10/04 04:12:05;;;;;;;1.30;1.10;;;10.50;49.10;;;;;;4993725;28;20267;-75
2022/10/04 04:14:30;;;;;;;1.30;1.08;;;8.60;48.40;;;;;;4993965;28;20478;-74
2022/10/04 04:17:25;;;;;;;1.30;1.00;;;10.50;49.00;;;;;;4994127;28;20202;-74
2022/10/04 04:20:01;;;;;;;1.30;1.00;;;10.80;47.80;;;;;;4993757;28;20234;-75
2022/10/04 04:22:30;;;;;;;1.30;1.10;;;10.60;48.20;;;;;;4993560;28;20252;-74
2022/10/04 04:24:59;;;;;;;1.30;1.00;;;10.60;48.30;;;;;;4993769;28;20169;-74
2022/10/04 04:27:25;;;;;;;1.30;1.10;;;10.50;48.40;;;;;;4991477;28;20209;-75
2022/10/04 04:29:54;;;;;;;1.30;1.10;;;10.40;48.90;;;;;;4993353;28;20539;-74
2022/10/04 04:32:28;;;;;;;1.30;1.10;;;10.50;49.00;;;;;;4993039;28;20494;-74
2022/10/04 04:35:07;;;;;;;1.30;1.10;;;10.60;47.40;;;;;;4993765;28;20174;-74
2022/10/04 04:37:37;;;;;;;1.30;1.10;;;10.60;48.20;;;;;;4993720;28;20240;-74
2022/10/04 04:40:21;;;;;;;1.30;1.10;;;10.60;48.00;;;;;;4994073;28;20213;-74
2022/10/04 04:42:48;;;;;;;1.30;1.10;;;10.60;48.80;;;;;;4993115;28;20178;-74
2022/10/04 04:45:16;;;;;;;1.30;1.10;;;10.10;49.10;;;;;;4993173;28;20170;-74
2022/10/04 04:47:46;;;;;;;1.30;1.10;;;10.10;49.40;;;;;;4992956;28;20272;-74
2022/10/04 04:50:16;;;;;;;1.30;1.10;;;10.20;48.80;;;;;;4993576;28;20646;-74
2022/10/04 04:52:46;;;;;;;1.30;1.17;;;10.10;49.20;;;;;;4992693;28;20193;-74
2022/10/04 04:57:38;;;;;;;1.30;1.20;;;10.20;49.20;;;;;;5031873;23;20324;-69
2022/10/04 05:00:05;;;;;;;1.30;1.10;;;10.40;48.90;;;;;;4991161;28;20658;-69
2022/10/04 05:02:37;;;;;;;1.30;1.00;;;10.60;47.60;;;;;;4992198;28;20179;-68
2022/10/04 05:05:19;;;;;;;1.30;1.10;;;10.20;48.70;;;;;;4992492;28;20253;-69
2022/10/04 05:07:46;;;;;;;1.30;1.10;;;10.30;49.70;;;;;;4973248;28;20167;-68
2022/10/04 05:10:39;;;;;;;1.30;1.02;;;10.00;48.50;;;;;;4973398;28;20596;-68
2022/10/04 05:13:07;;;;;;;1.30;1.02;;;10.10;48.70;;;;;;4971676;28;20186;-69
2022/10/04 05:15:35;;;;;;;1.30;1.10;;;10.50;47.20;;;;;;4973220;28;20187;-68
2022/10/04 05:18:14;;;;;;;1.30;1.00;;;10.60;46.50;;;;;;4973522;28;20200;-68
2022/10/04 05:20:49;;;;;;;1.30;1.10;;;10.80;45.20;;;;;;4973493;28;20202;-69
2022/10/04 05:23:15;;;;;;;1.30;1.20;;;10.70;46.40;;;;;;4973243;28;20170;-69
2022/10/04 05:25:40;;;;;;;1.30;1.20;;;10.60;46.20;;;;;;4973141;28;20273;-68
2022/10/04 05:28:10;;;;;;;1.30;1.10;;;10.70;45.80;;;;;;4973174;28;20525;-68
2022/10/04 05:30:47;;;;;;;1.30;1.10;;;10.20;46.70;;;;;;4973799;28;20171;-68
2022/10/04 05:33:23;;;;;;;1.30;1.10;;;10.10;48.40;;;;;;4973056;28;20226;-69
2022/10/04 05:36:10;;;;;;;1.30;1.05;;;10.00;48.50;;;;;;4988097;28;20542;-69
2022/10/04 05:38:47;;;;;;;1.30;1.00;;;9.80;50.20;;;;;;4973208;28;20185;-69
2022/10/04 05:41:28;;;;;;;1.30;1.00;;;9.80;49.70;;;;;;4972761;28;20202;-69
2022/10/04 05:43:54;;;;;;;1.30;1.20;;;9.40;51.40;;;;;;4972889;28;20537;-69
2022/10/04 05:46:32;;;;;;;1.30;1.00;;;9.50;53.20;;;;;;4973353;28;20198;-69
2022/10/04 05:49:11;;;;;;;1.30;1.00;;;9.80;52.10;;;;;;4988458;28;20536;-69
2022/10/04 05:52:12;;;;;;;1.30;1.10;;;10.20;49.10;;;;;;4972612;28;20185;-70
2022/10/04 05:54:38;;;;;;;1.30;1.00;;;10.40;48.10;;;;;;4972891;28;20169;-70
2022/10/04 05:57:19;;;;;;;1.30;1.10;;;11.10;46.50;;;;;;4972864;28;20681;-70
2022/10/04 06:00:15;;;;;;;1.30;1.08;;;10.70;46.00;;;;;;4972887;28;20186;-70
2022/10/04 06:03:17;;;;;;;1.30;1.10;;;10.80;45.50;;;;;;4972417;28;20168;-70
2022/10/04 06:06:20;;;;;;;1.30;1.10;;;10.50;47.30;;;;;;4972755;28;20280;-70
2022/10/04 06:09:16;;;;;;;1.30;1.10;;;10.50;49.00;;;;;;4989474;28;20664;-69
2022/10/04 06:12:02;;;;;;;1.30;1.10;;;10.70;46.80;;;;;;4989490;28;20630;-70
2022/10/04 06:14:47;;;;;;;1.30;1.00;;;10.70;48.40;;;;;;4979696;28;20190;-69
2022/10/04 06:17:24;;;;;;;1.30;1.00;;;10.50;48.40;;;;;;4989730;28;20212;-69
2022/10/04 06:20:09;;;;;;;1.30;1.00;;;10.40;49.00;;;;;;4989710;28;20297;-69
2022/10/04 06:22:45;;;;;;;1.30;1.08;;;10.30;48.90;;;;;;4972923;28;20195;-69
2022/10/04 06:25:25;;;;;;;1.30;1.10;;;10.60;49.10;;;;;;4994612;28;20188;-69
2022/10/04 06:28:14;;;;;;;1.30;1.05;;;11.10;46.50;;;;;;4996223;28;20193;-69
2022/10/04 06:30:52;;;;;;;1.30;1.00;;;11.20;45.20;;;;;;4969331;28;20201;-69
2022/10/04 06:33:48;;;;;;;1.30;1.00;;;11.50;44.20;;;;;;4996000;28;20615;-69
2022/10/04 06:36:39;;;;;;;1.30;1.00;;;11.50;44.30;;;;;;4996058;28;20228;-68
2022/10/04 06:39:24;;;;;;;1.30;1.00;;;11.20;45.90;;;;;;4995967;28;20190;-69
2022/10/04 06:42:17;;;;;;;1.30;1.10;;;11.10;46.20;;;;;;4995360;28;20323;-68
2022/10/04 06:45:04;;;;;;;1.30;1.10;;;11.40;45.20;;;;;;4990417;28;20184;-69
2022/10/04 06:47:54;;;;;;;1.30;1.10;;;11.50;44.30;;;;;;4978604;28;20271;-68
2022/10/04 06:50:48;;;;;;;1.30;1.00;;;11.30;45.90;;;;;;4991670;28;20187;-68
2022/10/04 06:53:41;;;;;;;1.30;1.08;;;11.20;46.60;;;;;;4978575;28;20236;-69
2022/10/04 06:56:19;;;;;;;1.30;1.10;;;11.00;46.70;;;;;;4978825;28;20641;-69
2022/10/04 06:59:01;;;;;;;1.30;1.00;;;11.00;47.50;;;;;;4978319;28;20182;-69
2022/10/04 07:01:37;;;;;;;1.30;1.00;;;11.00;47.40;;;;;;4977230;28;20202;-69
2022/10/04 07:04:27;;;;;;;1.30;1.00;;;11.10;47.50;;;;;;4978377;28;20168;-68
2022/10/04 07:07:23;;;;;;;1.30;1.00;;;11.00;47.20;;;;;;4978210;28;20333;-68
2022/10/04 07:10:13;;;;;;;1.30;1.00;;;10.30;51.90;;;;;;4978723;28;20490;-70
2022/10/04 07:12:43;;;;;;;1.30;1.10;;;10.60;50.90;;;;;;4978251;28;20165;-69
2022/10/04 07:15:20;;;;;;;1.30;1.00;;;11.10;50.50;;;;;;4978479;28;20532;-68
2022/10/04 07:17:49;;;;;;;1.30;1.10;;;11.50;48.00;;;;;;4977391;28;20176;-70
2022/10/04 07:20:22;;;;;;;1.30;1.15;;;11.60;48.00;;;;;;4978765;28;20205;-70
2022/10/04 07:22:57;;;;;;;1.30;1.10;;;11.80;47.20;;;;;;4978062;28;20168;-69
2022/10/04 07:25:43;;;;;;;1.30;1.10;;;12.20;45.00;;;;;;4978728;28;20254;-70
2022/10/04 07:31:24;;;;;;;1.30;1.15;;;12.20;46.10;;;;;;4978233;28;20412;-70
2022/10/04 07:33:57;;;;;;;1.30;1.20;;;12.00;45.50;;;;;;4970393;28;20217;-70
2022/10/04 07:36:31;;;;;;;1.30;1.00;;;12.10;45.80;;;;;;4975123;28;20199;-70
2022/10/04 07:39:10;;;;;;;1.30;1.10;;;12.40;46.10;;;;;;4973830;28;20182;-70
2022/10/04 07:41:51;;;;;;;1.30;1.10;;;12.60;47.30;;;;;;4974239;28;20197;-69
2022/10/04 07:44:32;;;;;;;1.30;1.00;;;12.40;46.40;;;;;;4973930;28;20169;-70
2022/10/04 07:47:04;;;;;;;1.30;1.10;;;11.80;48.60;;;;;;4974899;28;20217;-70
2022/10/04 07:49:37;;;;;;;1.30;1.10;;;11.50;50.00;;;;;;4975082;28;20617;-70
2022/10/04 07:52:37;;;;;;;1.30;1.20;;;11.70;51.40;;;;;;4974839;28;20402;-69
2022/10/04 07:55:32;;;;;;;1.30;1.10;;;12.00;50.40;;;;;;4975033;28;20921;-70
2022/10/04 07:58:12;;;;;;;1.30;1.00;;;12.50;48.30;;;;;;4975465;28;20778;-70
2022/10/04 08:01:02;;;;;;;1.30;1.10;;;12.60;47.50;;;;;;4975022;28;20945;-70
2022/10/04 08:03:47;;;;;;;1.30;1.00;;;12.00;49.60;;;;;;4974616;28;20642;-70
2022/10/04 08:06:24;;;;;;;1.30;1.10;;;11.70;51.70;;;;;;4975387;28;20807;-69
2022/10/04 08:09:06;;;;;;;1.30;1.20;;;11.60;53.20;;;;;;4974777;28;20897;-70
2022/10/04 08:12:04;;;;;;;1.30;1.10;;;12.10;50.50;;;;;;4972981;28;20469;-70
2022/10/04 08:14:53;;;;;;;1.30;1.10;;;12.00;50.40;;;;;;4974559;28;20517;-70
2022/10/04 08:17:38;;;;;;;1.30;1.07;;;11.70;51.40;;;;;;4973389;28;20506;-70
2022/10/04 08:20:16;;;;;;;1.30;1.10;;;12.00;52.00;;;;;;4974533;28;20474;-70
2022/10/04 08:23:19;;;;;;;1.30;1.10;;;11.70;51.90;;;;;;4974267;28;20414;-70
2022/10/04 08:26:15;;;;;;;1.30;1.03;;;11.90;53.10;;;;;;4974188;28;20433;-69
2022/10/04 08:31:50;;;;;;;1.30;1.07;;;12.60;49.60;;;;;;4974285;28;20457;-70
2022/10/04 08:34:21;;;;;;;1.30;1.10;;;12.60;49.30;;;;;;4974039;28;20790;-70
2022/10/04 08:37:02;;;;;;;1.30;1.00;;;12.80;48.60;;;;;;4972845;28;20446;-70
2022/10/04 08:39:39;;;;;;;1.30;1.10;;;12.50;49.80;;;;;;4974406;28;20416;-69
2022/10/04 08:42:31;;;;;;;1.30;1.10;;;13.00;48.10;;;;;;4973860;28;20420;-70
2022/10/04 08:45:00;;;;;;;1.30;1.10;;;13.40;47.10;;;;;;4973960;28;20417;-70
2022/10/04 08:48:05;;;;;;;1.30;1.10;;;13.40;46.50;;;;;;4974204;28;20426;-70
2022/10/04 08:50:52;;;;;;;1.30;1.10;;;13.90;45.10;;;;;;4972602;28;20410;-71
2022/10/04 08:53:45;;;;;;;1.30;1.10;;;14.10;44.40;;;;;;4973847;28;20383;-70
2022/10/04 08:57:03;;;;;;;1.30;1.10;;;13.60;45.70;;;;;;4972550;28;20449;-71
2022/10/04 08:59:45;;;;;;;1.30;1.10;;;13.90;46.10;;;;;;4933062;29;20489;-70
2022/10/04 09:02:25;;;;;;;1.30;1.10;;;14.10;45.90;;;;;;4932909;29;20515;-70
2022/10/04 09:05:05;;;;;;;1.30;1.10;;;14.10;46.10;;;;;;4932544;29;20415;-70
2022/10/04 09:07:38;;;;;;;1.30;1.10;;;14.20;45.50;;;;;;4933188;29;20935;-70
2022/10/04 09:10:33;;;;;;;1.30;1.10;;;14.30;45.20;;;;;;4932912;29;21063;-70
2022/10/04 09:13:25;;;;;;;1.30;1.10;;;13.90;45.50;;;;;;4932683;29;20444;-70
2022/10/04 09:15:52;;;;;;;1.30;1.10;;;13.70;46.60;;;;;;4932719;29;20443;-70
2022/10/04 09:18:28;;;;;;;1.30;1.20;;;13.50;47.20;;;;;;4932634;29;20408;-70
2022/10/04 09:20:59;;;;;;;1.30;1.20;;;13.00;49.20;;;;;;4932197;29;20573;-70
2022/10/04 09:23:32;;;;;;;1.30;1.10;;;12.90;50.90;;;;;;4932790;29;20507;-70
2022/10/04 09:26:09;;;;;;;1.30;1.00;;;13.30;51.60;;;;;;4932240;29;20438;-71
2022/10/04 09:28:53;;;;;;;1.30;1.17;;;13.70;49.10;;;;;;4932594;29;20946;-70
2022/10/04 09:31:43;;;;;;;1.30;1.00;;;13.20;49.90;;;;;;4932379;29;20495;-70
2022/10/04 09:34:32;;;;;;;1.30;1.10;;;13.10;50.50;;;;;;4942025;28;20936;-70
2022/10/04 09:37:15;;;;;;;1.30;1.10;;;13.50;48.00;;;;;;4973039;28;20426;-71
2022/10/04 09:39:59;;;;;;;1.30;1.10;;;13.70;48.30;;;;;;4973358;28;20912;-71
2022/10/04 09:42:38;;;;;;;1.30;1.10;;;14.10;46.50;;;;;;4972642;28;20414;-70
2022/10/04 09:45:09;;;;;;;1.30;1.10;;;14.00;48.20;;;;;;4972975;28;20993;-71
2022/10/04 09:47:45;;;;;;;1.30;1.10;;;15.00;46.80;;;;;;4973134;28;20513;-71
2022/10/04 09:50:30;;;;;;;1.30;1.10;;;14.70;45.60;;;;;;4972898;28;20414;-71
2022/10/04 09:53:15;;;;;;;1.30;1.10;;;15.30;43.40;;;;;;4971368;28;20418;-71
2022/10/04 09:56:03;;;;;;;1.30;1.10;;;15.50;42.60;;;;;;4971255;28;20445;-71
2022/10/04 09:58:45;;;;;;;1.30;1.20;;;15.90;41.30;;;;;;4972675;28;20936;-71
2022/10/04 10:01:35;;;;;;;1.30;1.20;;;15.90;41.40;;;;;;4971053;28;20496;-71
2022/10/04 10:04:28;;;;;;;1.30;1.10;;;16.00;40.60;;;;;;4972439;28;20400;-71
2022/10/04 10:06:57;;;;;;;1.30;1.10;;;15.50;41.60;;;;;;4972704;28;20423;-69
2022/10/04 10:15:58;;;;;;;1.30;1.10;;;15.20;44.30;;;;;;4931882;29;20852;-71
2022/10/04 10:19:00;;;;;;;1.30;1.10;;;15.60;42.70;;;;;;4932424;29;20427;-71
2022/10/04 10:21:46;;;;;;;1.30;1.10;;;15.70;42.00;;;;;;4931374;29;20466;-70
2022/10/04 10:24:45;;;;;;;1.30;1.20;;;16.20;41.80;;;;;;4902954;29;20419;-71
2022/10/04 10:27:45;;;;;;;1.30;1.20;;;16.10;41.30;;;;;;4932003;29;20588;-71
2022/10/04 10:30:23;;;;;;;1.30;1.20;;;16.40;41.30;;;;;;4932033;29;20431;-71
2022/10/04 10:33:19;;;;;;;1.30;1.00;;;16.60;40.50;;;;;;4931556;29;20468;-71
2022/10/04 10:36:12;;;;;;;1.30;1.10;;;16.40;41.30;;;;;;4931602;29;20454;-71
2022/10/04 10:38:51;;;;;;;1.30;1.10;;;16.30;41.40;;;;;;4931933;29;20948;-71
2022/10/04 10:41:31;;;;;;;1.30;1.00;;;16.60;40.40;;;;;;4931803;29;20460;-71
2022/10/04 10:44:20;;;;;;;1.30;1.20;;;16.90;39.90;;;;;;4931735;29;20831;-71
2022/10/04 10:46:54;;;;;;;1.30;1.10;;;17.80;39.60;;;;;;4931890;29;20436;-71
2022/10/04 10:49:26;;;;;;;1.30;1.10;;;17.60;38.90;;;;;;4953118;28;20410;-71
2022/10/04 10:52:21;;;;;;;1.30;1.10;;;17.60;40.30;;;;;;4971997;28;20481;-70
2022/10/04 10:55:48;;;;;;;1.30;1.20;;;18.00;38.60;;;;;;4972222;28;20419;-70
2022/10/04 10:58:43;;;;;;;1.30;1.20;;;18.20;37.70;;;;;;4970427;28;20454;-70
2022/10/04 11:01:58;;;;;;;1.30;1.10;;;19.50;37.60;;;;;;4972067;28;20997;-70
2022/10/04 11:04:34;;;;;;;1.30;1.10;;;19.30;36.20;;;;;;4972210;28;20817;-70
2022/10/04 11:07:21;;;;;;;1.30;1.10;;;19.30;36.90;;;;;;4972504;28;20425;-69
2022/10/04 11:10:17;;;;;;;1.30;1.00;;;20.00;34.10;;;;;;4972183;28;20401;-72
2022/10/04 11:12:45;;;;;;;1.30;1.20;;;20.30;33.20;;;;;;4975089;28;20398;-70
2022/10/04 11:15:39;;;;;;;1.27;1.10;;;20.60;33.30;;;;;;4975827;28;20470;-72
2022/10/04 11:18:22;;;;;;;1.30;1.20;;;20.40;33.50;;;;;;4975734;28;20430;-70
2022/10/04 11:21:10;;;;;;;1.30;1.13;;;20.00;35.00;;;;;;4974104;28;20463;-70
2022/10/04 11:23:54;;;;;;;1.30;1.17;;;19.40;35.30;;;;;;4975495;28;20411;-72
2022/10/04 11:26:45;;;;;;;1.30;1.30;;;18.70;38.10;;;;;;4975105;28;20435;-70
2022/10/04 11:29:29;;;;;;;1.30;1.10;;;19.40;37.50;;;;;;4974966;28;20510;-70
2022/10/04 11:32:01;;;;;;;1.30;1.20;;;20.30;34.90;;;;;;4975301;28;20502;-70
2022/10/04 11:34:58;;;;;;;1.30;1.20;;;21.00;33.40;;;;;;4975848;28;20484;-70
2022/10/04 11:37:46;;;;;;;1.30;1.20;;;20.10;35.50;;;;;;4975607;28;20866;-70
2022/10/04 11:40:49;;;;;;;1.30;1.10;;;19.50;36.90;;;;;;4974479;28;20982;-71
2022/10/04 11:43:35;;;;;;;1.30;1.30;;;20.00;36.20;;;;;;4975616;28;20397;-70
2022/10/04 11:46:22;;;;;;;1.30;1.20;;;20.40;35.70;;;;;;4974739;28;20434;-71
2022/10/04 11:49:03;;;;;;;1.30;1.20;;;20.30;35.00;;;;;;4974417;28;20942;-71
2022/10/04 11:51:57;;;;;;;1.30;1.10;;;21.00;34.70;;;;;;4968627;28;20414;-72
2022/10/04 11:54:37;;;;;;;1.30;1.20;;;22.00;32.80;;;;;;4975226;28;20429;-71
2022/10/04 11:57:23;;;;;;;1.30;1.20;;;22.50;31.20;;;;;;4974140;28;20499;-71
2022/10/04 11:59:57;;;;;;;1.30;1.10;;;22.80;32.20;;;;;;4975515;28;20828;-70
2022/10/04 12:02:37;;;;;;;1.30;1.10;;;22.10;29.80;;;;;;4975338;28;20398;-71
2022/10/04 12:05:06;;;;;;;1.30;1.20;;;21.90;32.20;;;;;;4975369;28;20428;-71
2022/10/04 12:07:37;;;;;;;1.30;1.10;;;22.40;32.30;;;;;;4975492;28;20426;-72
2022/10/04 12:10:23;;;;;;;1.30;1.20;;;22.60;30.30;;;;;;4976847;28;20402;-71
2022/10/04 12:12:51;;;;;;;1.30;1.20;;;22.60;30.50;;;;;;4976086;28;20411;-71
2022/10/04 12:15:41;;;;;;;1.30;1.10;;;22.90;29.20;;;;;;4975479;28;20891;-70
2022/10/04 12:18:44;;;;;;;1.30;1.20;;;23.00;31.30;;;;;;4974399;28;20507;-70
2022/10/04 12:21:22;;;;;;;1.30;1.10;;;23.20;30.70;;;;;;4975114;28;20465;-70
2022/10/04 12:24:18;;;;;;;1.30;1.10;;;22.90;31.30;;;;;;4974651;28;20423;-70
2022/10/04 12:26:51;;;;;;;1.30;1.10;;;22.80;31.50;;;;;;4974073;28;20451;-70
2022/10/04 12:29:39;;;;;;;1.30;1.13;;;22.90;30.70;;;;;;4976599;28;20431;-71
2022/10/04 12:32:40;;;;;;;1.30;1.20;;;22.90;29.70;;;;;;4974998;28;20414;-73
2022/10/04 12:35:11;;;;;;;1.30;1.30;;;22.80;31.00;;;;;;4933679;29;20423;-71
2022/10/04 12:38:00;;;;;;;1.30;1.20;;;23.30;30.90;;;;;;4967756;28;20962;-71
2022/10/04 12:40:54;;;;;;;1.30;1.20;;;23.00;31.60;;;;;;4974905;28;20442;-70
2022/10/04 12:43:42;;;;;;;1.30;1.20;;;23.10;31.60;;;;;;4974533;28;20410;-71
2022/10/04 12:46:26;;;;;;;1.30;1.20;;;23.20;31.40;;;;;;4974613;28;20431;-71
2022/10/04 12:49:18;;;;;;;1.30;1.10;;;23.70;30.20;;;;;;4989360;28;20419;-72
2022/10/04 12:52:24;;;;;;;1.30;1.10;;;23.30;30.00;;;;;;4973872;28;20434;-71
2022/10/04 12:55:37;;;;;;;1.30;1.20;;;23.70;30.40;;;;;;4971902;28;21174;-72
2022/10/04 12:58:17;;;;;;;1.30;1.20;;;23.80;29.30;;;;;;4899103;29;20436;-71
2022/10/04 13:00:45;;;;;;;1.30;1.23;;;23.80;30.60;;;;;;4895537;29;20480;-70
2022/10/04 13:03:28;;;;;;;1.30;1.10;;;23.90;30.30;;;;;;4897277;29;20413;-72
2022/10/04 13:06:01;;;;;;;1.30;1.10;;;24.20;29.00;;;;;;4897304;29;20508;-70
2022/10/04 13:08:51;;;;;;;1.30;1.10;;;24.40;29.60;;;;;;4897228;29;20425;-71
2022/10/04 13:11:26;;;;;;;1.27;1.20;;;23.40;29.10;;;;;;4896297;29;20429;-71
2022/10/04 13:14:28;;;;;;;1.30;1.10;;;22.70;30.40;;;;;;4895755;29;20978;-72
2022/10/04 13:17:16;;;;;;;1.30;1.13;;;22.60;31.30;;;;;;4895679;29;20455;-72
2022/10/04 13:19:46;;;;;;;1.30;1.20;;;23.30;29.70;;;;;;4880296;29;21054;-71
2022/10/04 13:22:33;;;;;;;1.27;1.10;;;23.20;30.70;;;;;;4895392;29;20444;-71
2022/10/04 13:25:17;;;;;;;1.30;1.10;;;23.70;29.70;;;;;;4895242;29;20849;-71
2022/10/04 13:27:51;;;;;;;1.30;1.10;;;23.50;29.60;;;;;;4894796;29;20418;-71
2022/10/04 13:30:26;;;;;;;1.23;1.10;;;24.30;29.10;;;;;;4894881;29;20402;-71
2022/10/04 13:33:04;;;;;;;1.27;1.10;;;24.70;29.40;;;;;;4916056;28;20410;-71
2022/10/04 13:35:32;;;;;;;1.30;1.20;;;24.60;28.70;;;;;;4972663;28;20484;-71
2022/10/04 13:38:25;;;;;;;1.30;1.10;;;24.90;29.50;;;;;;4973276;28;20432;-71
2022/10/04 13:41:23;;;;;;;1.27;1.10;;;24.90;28.30;;;;;;4972948;28;20458;-70
2022/10/04 13:44:18;;;;;;;1.30;1.20;;;25.00;28.80;;;;;;4932070;29;20435;-71
2022/10/04 13:47:10;;;;;;;1.30;1.20;;;25.10;27.40;;;;;;4932134;29;21013;-71
2022/10/04 13:50:07;;;;;;;1.30;1.00;;;25.00;27.30;;;;;;4932363;29;20419;-70
2022/10/04 13:58:58;;;;;;;1.23;1.03;;;24.20;29.00;;;;;;4930709;29;20462;-70
2022/10/04 14:01:32;;;;;;;1.30;1.20;;;24.80;28.20;;;;;;4931002;29;20459;-69
2022/10/04 14:04:31;;;;;;;1.30;1.00;;;24.90;27.70;;;;;;4931885;29;20422;-70
2022/10/04 14:07:18;;;;;;;1.30;1.10;;;24.70;27.60;;;;;;4932049;29;20819;-69
2022/10/04 14:10:11;;;;;;;1.30;1.20;;;24.80;29.10;;;;;;4931878;29;20880;-70
2022/10/04 14:13:14;;;;;;;1.30;1.10;;;25.20;28.90;;;;;;4915621;29;20989;-69
2022/10/04 14:16:13;;;;;;;1.30;1.10;;;25.30;27.70;;;;;;4932011;29;20825;-70
2022/10/04 14:19:15;;;;;;;1.30;1.10;;;24.70;28.00;;;;;;4931850;29;20419;-70